createdAt,value
2022-11-04T00:29:39.884Z,0
2022-11-04T00:30:19.973Z,0
2022-11-04T00:31:00.475Z,0
2022-11-04T00:31:41.265Z,0
2022-11-04T00:32:21.497Z,0
2022-11-04T00:33:01.971Z,0
2022-11-04T00:40:27.290Z,0
2022-11-04T00:41:07.726Z,0
2022-11-04T00:41:48.282Z,0
2022-11-04T00:42:28.752Z,0
2022-11-04T00:43:09.341Z,0
2022-11-04T00:43:49.827Z,0
2022-11-04T00:44:30.698Z,0
2022-11-04T00:45:11.102Z,0
2022-11-04T00:45:51.569Z,0
2022-11-04T00:46:32.016Z,0
2022-11-04T00:53:57.483Z,0
2022-11-04T00:54:37.999Z,0
2022-11-04T00:55:19.240Z,0
2022-11-04T00:55:59.753Z,0
2022-11-04T00:56:40.169Z,0
2022-11-04T00:57:20.766Z,0
2022-11-04T00:58:01.190Z,0
2022-11-04T00:58:41.765Z,0
2022-11-04T00:59:22.159Z,0
2022-11-04T01:06:47.423Z,0
2022-11-04T01:07:27.871Z,0
2022-11-04T01:08:08.377Z,0
2022-11-04T01:08:48.962Z,0
2022-11-04T01:09:29.371Z,0
2022-11-04T01:10:09.827Z,0
2022-11-04T01:10:50.308Z,0
2022-11-04T01:11:30.770Z,0
2022-11-04T01:12:11.281Z,0
2022-11-04T01:12:51.732Z,0
2022-11-04T01:13:32.229Z,0
2022-11-04T01:20:57.572Z,0
2022-11-04T01:21:37.966Z,0
2022-11-04T01:22:18.467Z,0
2022-11-04T01:22:59.014Z,0
2022-11-04T01:23:39.461Z,0
2022-11-04T01:24:19.900Z,0
2022-11-04T01:25:00.471Z,0
2022-11-04T01:25:40.937Z,0
2022-11-04T01:26:21.378Z,0
2022-11-04T01:27:01.864Z,0
2022-11-04T01:27:42.323Z,0
2022-11-04T01:35:07.555Z,0
2022-11-04T01:35:48.023Z,0
2022-11-04T01:36:28.508Z,0
2022-11-04T01:37:08.981Z,0
2022-11-04T01:37:49.489Z,0
2022-11-04T01:38:29.919Z,0
2022-11-04T01:39:10.383Z,0
2022-11-04T01:39:50.817Z,0
2022-11-04T01:40:31.329Z,0
2022-11-04T01:41:11.795Z,0
2022-11-04T01:41:52.304Z,0
2022-11-04T01:49:17.517Z,0
2022-11-04T01:49:57.987Z,0
2022-11-04T01:50:38.434Z,0
2022-11-04T01:51:18.853Z,0
2022-11-04T01:51:59.346Z,0
2022-11-04T01:53:20.322Z,0
2022-11-04T01:54:00.849Z,0
2022-11-04T01:54:41.283Z,0
2022-11-04T01:55:21.790Z,0
2022-11-04T01:56:02.334Z,0
2022-11-04T02:03:27.767Z,0
2022-11-04T02:04:08.306Z,0
2022-11-04T02:06:21.531Z,0
2022-11-04T02:07:02.021Z,0
2022-11-04T02:07:42.443Z,0
2022-11-04T02:13:06.588Z,0
2022-11-04T02:13:46.737Z,0
2022-11-04T02:14:27.196Z,0
2022-11-04T02:15:07.689Z,0
2022-11-04T02:15:48.128Z,0
2022-11-04T02:16:28.592Z,0
2022-11-04T02:17:09.073Z,0
2022-11-04T02:17:49.584Z,0
2022-11-04T02:18:30.047Z,0
2022-11-04T02:19:10.546Z,0
2022-11-04T02:19:50.987Z,0
2022-11-04T02:27:16.182Z,0
2022-11-04T02:27:56.668Z,0
2022-11-04T02:28:37.194Z,0
2022-11-04T02:29:17.599Z,0
2022-11-04T02:29:58.062Z,0
2022-11-04T02:30:38.524Z,0
2022-11-04T02:31:19.012Z,0
2022-11-04T02:31:59.514Z,0
2022-11-04T02:32:40.051Z,0
2022-11-04T02:36:19.213Z,0
2022-11-04T02:36:59.621Z,0
2022-11-04T02:37:40.161Z,0
2022-11-04T02:43:03.945Z,0
2022-11-04T02:43:44.398Z,0
2022-11-04T02:44:24.859Z,0
2022-11-04T02:45:05.323Z,0
2022-11-04T02:45:45.781Z,0
2022-11-04T02:46:26.247Z,0
2022-11-04T02:47:06.783Z,0
2022-11-04T02:47:47.205Z,0
2022-11-04T02:48:27.672Z,0
2022-11-04T02:49:08.154Z,0
2022-11-04T02:49:48.623Z,0
2022-11-04T02:57:13.830Z,0
2022-11-04T02:57:54.329Z,0
2022-11-04T02:58:34.801Z,0
2022-11-04T02:59:15.265Z,0
2022-11-04T02:59:55.779Z,0
2022-11-04T03:00:36.191Z,0
2022-11-04T03:01:16.827Z,0
2022-11-04T03:01:57.247Z,0
2022-11-04T03:02:37.723Z,0
2022-11-04T03:03:18.117Z,0
2022-11-04T03:03:58.603Z,0
2022-11-04T03:11:23.907Z,0
2022-11-04T03:12:04.400Z,0
2022-11-04T03:12:44.875Z,0
2022-11-04T03:13:25.343Z,0
2022-11-04T03:14:05.794Z,0
2022-11-04T03:14:46.328Z,0
2022-11-04T03:15:26.831Z,0
2022-11-04T03:16:07.246Z,0
2022-11-04T03:16:47.733Z,0
2022-11-04T03:17:28.224Z,0
2022-11-04T03:18:09.012Z,0
2022-11-04T03:25:33.993Z,0
2022-11-04T03:26:14.416Z,0
2022-11-04T03:26:54.870Z,0
2022-11-04T03:27:35.347Z,0
2022-11-04T03:28:15.835Z,0
2022-11-04T03:28:56.278Z,0
2022-11-04T03:29:36.749Z,0
2022-11-04T03:30:57.735Z,0
2022-11-04T03:31:38.186Z,0
2022-11-04T03:32:18.643Z,0
2022-11-04T03:39:43.950Z,0
2022-11-04T03:40:24.374Z,0
2022-11-04T03:41:04.851Z,0
2022-11-04T03:41:45.321Z,0
2022-11-04T03:42:25.772Z,0
2022-11-04T03:43:06.496Z,0
2022-11-04T03:43:46.678Z,0
2022-11-04T03:44:27.129Z,0
2022-11-04T03:45:07.643Z,0
2022-11-04T03:45:48.041Z,0
2022-11-04T03:46:28.527Z,0
2022-11-04T03:53:53.780Z,0
2022-11-04T03:54:34.243Z,0
2022-11-04T03:55:14.726Z,0
2022-11-04T03:55:55.204Z,0
2022-11-04T03:56:35.674Z,0
2022-11-04T03:57:16.165Z,0
2022-11-04T03:57:56.638Z,0
2022-11-04T03:58:37.147Z,0
2022-11-04T03:59:17.594Z,0
2022-11-04T03:59:58.068Z,0
2022-11-04T04:00:38.573Z,0
2022-11-04T04:08:03.724Z,0
2022-11-04T04:08:44.179Z,0
2022-11-04T04:09:24.653Z,0
2022-11-04T04:10:05.141Z,0
2022-11-04T04:10:45.564Z,0
2022-11-04T04:11:26.063Z,0
2022-11-04T04:12:06.531Z,0
2022-11-04T04:12:46.988Z,0
2022-11-04T04:13:27.484Z,0
2022-11-04T04:14:07.950Z,0
2022-11-04T04:14:48.444Z,0
2022-11-04T04:22:54.098Z,0
2022-11-04T04:23:34.535Z,0
2022-11-04T04:24:15.039Z,0
2022-11-04T04:24:55.550Z,0
2022-11-04T04:25:35.968Z,0
2022-11-04T04:26:16.394Z,0
2022-11-04T04:26:56.850Z,0
2022-11-04T04:27:37.312Z,0
2022-11-04T04:28:17.823Z,0
2022-11-04T04:28:58.260Z,0
2022-11-04T04:37:03.964Z,0
2022-11-04T04:37:44.484Z,0
2022-11-04T04:38:24.973Z,0
2022-11-04T04:39:05.429Z,0
2022-11-04T04:39:45.904Z,0
2022-11-04T04:40:26.441Z,0
2022-11-04T04:41:06.895Z,0
2022-11-04T04:41:47.414Z,0
2022-11-04T04:42:27.863Z,0
2022-11-04T04:43:08.497Z,0
2022-11-04T04:50:33.833Z,0
2022-11-04T04:51:14.322Z,0
2022-11-04T04:51:54.754Z,0
2022-11-04T04:52:35.215Z,0
2022-11-04T04:53:15.704Z,0
2022-11-04T04:53:56.172Z,0
2022-11-04T04:54:36.630Z,0
2022-11-04T04:55:17.165Z,0
2022-11-04T04:55:57.590Z,0
2022-11-04T04:56:38.011Z,0
2022-11-04T04:57:18.450Z,0
2022-11-04T05:05:24.135Z,0
2022-11-04T05:06:04.659Z,0
2022-11-04T05:06:45.103Z,0
2022-11-04T05:07:25.576Z,0
2022-11-04T05:08:06.326Z,0
2022-11-04T05:08:46.486Z,0
2022-11-04T05:09:26.987Z,0
2022-11-04T05:10:07.517Z,0
2022-11-04T05:10:47.980Z,0
2022-11-04T05:11:28.522Z,0
2022-11-04T05:18:53.769Z,0
2022-11-04T05:19:34.236Z,0
2022-11-04T05:20:14.712Z,0
2022-11-04T05:20:55.219Z,0
2022-11-04T05:21:35.726Z,0
2022-11-04T05:22:16.174Z,0
2022-11-04T05:22:56.647Z,0
2022-11-04T05:23:37.148Z,0
2022-11-04T05:24:17.577Z,0
2022-11-04T05:24:58.081Z,0
2022-11-04T05:25:38.563Z,0
2022-11-04T05:33:04.927Z,0
2022-11-04T05:33:44.230Z,0
2022-11-04T05:34:24.805Z,0
2022-11-04T05:35:05.285Z,0
2022-11-04T05:35:45.825Z,0
2022-11-04T05:36:26.350Z,0
2022-11-04T05:37:06.749Z,0
2022-11-04T05:37:47.219Z,0
2022-11-04T05:38:27.668Z,0
2022-11-04T05:39:08.132Z,0
2022-11-04T05:39:48.613Z,0
2022-11-04T05:47:13.906Z,0
2022-11-04T05:47:54.406Z,0
2022-11-04T05:48:40.133Z,0
2022-11-04T05:49:15.480Z,0
2022-11-04T05:49:55.938Z,0
2022-11-04T05:50:36.388Z,0
2022-11-04T05:51:16.850Z,0
2022-11-04T05:51:57.319Z,0
2022-11-04T05:52:37.796Z,0
2022-11-04T06:32:22.339Z,0
2022-11-04T06:33:01.267Z,0
2022-11-04T06:33:41.827Z,0
2022-11-04T06:34:22.397Z,0
2022-11-04T06:35:02.915Z,0
2022-11-04T06:39:06.808Z,0
2022-11-04T06:39:47.359Z,0
2022-11-04T06:40:27.912Z,0
2022-11-04T06:41:08.421Z,0
2022-11-04T06:41:50.586Z,0
2022-11-04T06:42:29.373Z,0
2022-11-04T06:43:10.162Z,0
2022-11-04T06:43:50.535Z,0
2022-11-04T06:44:31.106Z,0
2022-11-04T06:45:11.635Z,0
2022-11-04T06:51:17.070Z,0
2022-11-04T06:51:57.649Z,0
2022-11-04T06:52:42.250Z,0
2022-11-04T06:53:18.733Z,0
2022-11-04T06:53:59.322Z,0
2022-11-04T06:54:40.049Z,0
2022-11-04T06:55:20.990Z,0
2022-11-04T06:56:02.046Z,0
2022-11-04T06:58:58.622Z,0
2022-11-04T06:59:39.018Z,0
2022-11-04T07:00:19.543Z,0
2022-11-04T07:01:00.181Z,0
2022-11-04T07:05:03.136Z,0
2022-11-04T07:05:43.573Z,0
2022-11-04T07:06:24.275Z,0
2022-11-04T07:07:04.685Z,0
2022-11-04T07:07:45.158Z,0
2022-11-04T07:08:25.695Z,0
2022-11-04T07:09:06.368Z,0
2022-11-04T07:09:46.924Z,0
2022-11-04T07:10:27.648Z,0
2022-11-04T07:11:07.996Z,0
2022-11-04T07:17:53.064Z,0
2022-11-04T07:18:33.636Z,0
2022-11-04T07:19:14.122Z,0
2022-11-04T07:19:54.605Z,0
2022-11-04T07:20:35.214Z,0
2022-11-04T07:21:15.682Z,0
2022-11-04T07:21:56.137Z,0
2022-11-04T07:22:37.238Z,0
2022-11-04T07:29:23.386Z,0
2022-11-04T07:30:03.828Z,0
2022-11-04T07:30:44.282Z,0
2022-11-04T07:31:24.815Z,0
2022-11-04T07:32:05.308Z,0
2022-11-04T07:32:46.617Z,0
2022-11-04T07:33:27.206Z,0
2022-11-04T07:34:07.684Z,0
2022-11-04T07:40:53.449Z,0
2022-11-04T07:42:14.621Z,0
2022-11-04T07:42:55.042Z,0
2022-11-04T07:43:35.515Z,0
2022-11-04T07:44:16.059Z,0
2022-11-04T07:44:56.601Z,0
2022-11-04T07:45:37.141Z,0
2022-11-04T07:46:17.556Z,0
2022-11-04T07:46:58.083Z,0
2022-11-04T07:53:43.131Z,0
2022-11-04T07:54:23.657Z,0
2022-11-04T07:55:04.221Z,0
2022-11-04T07:55:44.737Z,0
2022-11-04T07:56:25.220Z,0
2022-11-04T07:57:05.802Z,0
2022-11-04T07:57:46.327Z,0
2022-11-04T07:58:26.834Z,0
2022-11-04T08:01:58.317Z,0
2022-11-04T08:02:38.268Z,0
2022-11-04T08:03:18.691Z,0
2022-11-04T08:21:14.414Z,5
2022-11-04T08:21:54.892Z,5
2022-11-04T08:22:35.414Z,5
2022-11-04T08:29:21.200Z,5
2022-11-04T08:30:01.706Z,5
2022-11-04T08:30:42.198Z,5
2022-11-04T08:31:22.714Z,10
2022-11-04T08:32:03.196Z,10
2022-11-04T08:32:43.715Z,10
2022-11-04T08:33:24.290Z,10
2022-11-04T08:34:04.733Z,10
2022-11-04T08:34:45.312Z,10
2022-11-04T08:35:25.712Z,10
2022-11-04T08:40:54.486Z,10
2022-11-04T08:41:32.096Z,10
2022-11-04T08:42:12.582Z,10
2022-11-04T08:42:53.189Z,10
2022-11-04T08:43:33.664Z,10
2022-11-04T08:44:14.154Z,10
2022-11-04T08:44:54.620Z,15
2022-11-04T08:45:35.116Z,15
2022-11-04T08:46:15.559Z,15
2022-11-04T08:53:00.943Z,15
2022-11-04T08:53:41.490Z,15
2022-11-04T08:54:21.972Z,15
2022-11-04T08:55:02.454Z,15
2022-11-04T08:55:42.948Z,15
2022-11-04T08:56:23.479Z,15
2022-11-04T08:57:04.021Z,15
2022-11-04T08:57:44.468Z,15
2022-11-04T08:58:25.057Z,15
2022-11-04T08:59:05.618Z,20
2022-11-04T09:06:31.302Z,25
2022-11-04T09:07:11.744Z,25
2022-11-04T09:07:52.282Z,25
2022-11-04T09:08:32.698Z,25
2022-11-04T09:09:13.190Z,25
2022-11-04T09:09:54.543Z,25
2022-11-04T09:10:35.031Z,25
2022-11-04T09:11:15.577Z,25
2022-11-04T09:18:00.794Z,20
2022-11-04T09:18:41.324Z,20
2022-11-04T09:19:21.858Z,20
2022-11-04T09:20:02.320Z,20
2022-11-04T09:20:42.928Z,20
2022-11-04T09:21:23.424Z,20
2022-11-04T09:22:03.953Z,20
2022-11-04T09:22:45.847Z,20
2022-11-04T09:23:25.167Z,20
2022-11-04T09:24:05.634Z,20
2022-11-04T09:30:13.181Z,40
2022-11-04T09:30:53.771Z,40
2022-11-04T09:31:34.213Z,40
2022-11-04T09:32:55.220Z,35
2022-11-04T09:33:35.744Z,35
2022-11-04T09:38:53.568Z,40
2022-11-04T09:39:34.147Z,40
2022-11-04T09:40:14.915Z,30
2022-11-04T09:42:16.528Z,25
2022-11-04T09:42:57.127Z,30
2022-11-04T09:43:37.636Z,30
2022-11-04T09:44:18.179Z,30
2022-11-04T09:45:39.205Z,30
2022-11-04T09:46:19.775Z,30
2022-11-04T09:47:00.327Z,35
2022-11-04T09:47:40.830Z,35
2022-11-04T09:48:21.310Z,40
2022-11-04T09:54:26.443Z,35
2022-11-04T09:55:06.785Z,35
2022-11-04T09:55:47.339Z,35
2022-11-04T09:56:27.865Z,30
2022-11-04T09:57:08.401Z,30
2022-11-04T09:57:48.902Z,30
2022-11-04T09:58:29.311Z,30
2022-11-04T09:59:09.911Z,30
2022-11-04T09:59:50.379Z,30
2022-11-04T10:00:30.911Z,25
2022-11-04T10:01:11.409Z,25
2022-11-04T10:07:16.666Z,25
2022-11-04T10:07:57.210Z,20
2022-11-04T10:08:38.223Z,20
2022-11-04T10:09:18.216Z,20
2022-11-04T10:09:58.854Z,20
2022-11-04T10:10:39.263Z,20
2022-11-04T10:11:19.739Z,20
2022-11-04T10:12:00.341Z,15
2022-11-04T10:12:40.861Z,15
2022-11-04T10:27:25.679Z,20
2022-11-04T10:28:07.119Z,20
2022-11-04T10:28:48.530Z,20
2022-11-04T10:29:32.665Z,20
2022-11-04T10:34:35.234Z,20
2022-11-04T10:35:16.229Z,15
2022-11-04T10:35:56.752Z,15
2022-11-04T10:36:37.288Z,15
2022-11-04T10:37:17.815Z,15
2022-11-04T10:43:23.269Z,15
2022-11-04T10:44:03.871Z,15
2022-11-04T10:44:44.384Z,15
2022-11-04T10:45:24.842Z,15
2022-11-04T10:46:05.310Z,15
2022-11-04T10:46:45.865Z,15
2022-11-04T10:47:26.402Z,15
2022-11-04T10:48:06.866Z,15
2022-11-04T10:48:47.389Z,15
2022-11-04T10:49:27.826Z,15
2022-11-04T10:56:53.518Z,20
2022-11-04T10:57:33.998Z,20
2022-11-04T10:58:14.550Z,20
2022-11-04T10:58:55.058Z,20
2022-11-04T10:59:35.467Z,20
2022-11-04T11:00:16.875Z,20
2022-11-04T11:00:57.380Z,20
2022-11-04T11:01:37.877Z,20
2022-11-04T11:02:18.387Z,20
2022-11-04T11:08:53.370Z,25
2022-11-04T11:09:33.888Z,25
2022-11-04T11:10:14.416Z,25
2022-11-04T11:14:58.143Z,30
2022-11-04T11:15:38.691Z,30
2022-11-04T11:16:19.219Z,30
2022-11-04T11:23:39.550Z,35
2022-11-04T11:24:19.968Z,40
2022-11-04T11:25:00.442Z,40
2022-11-04T11:28:23.215Z,45
2022-11-04T11:29:04.699Z,45
2022-11-04T11:29:45.240Z,45
2022-11-04T11:31:06.281Z,45
2022-11-04T11:31:47.015Z,40
2022-11-04T11:32:27.388Z,40
2022-11-04T11:33:08.750Z,35
2022-11-04T11:39:14.122Z,30
2022-11-04T11:39:55.965Z,30
2022-11-04T11:40:35.316Z,30
2022-11-04T11:41:24.707Z,30
2022-11-04T11:41:56.832Z,30
2022-11-04T11:42:37.411Z,30
2022-11-04T11:46:49.632Z,40
2022-11-04T11:47:30.238Z,40
2022-11-04T11:48:10.772Z,40
2022-11-04T11:51:33.690Z,25
2022-11-04T11:52:14.277Z,25
2022-11-04T11:52:54.854Z,25
2022-11-04T12:34:22.959Z,30
2022-11-04T12:35:03.986Z,30
2022-11-04T12:35:45.233Z,35
2022-11-04T12:36:27.791Z,40
2022-11-04T12:39:13.173Z,35
2022-11-04T12:39:54.087Z,30
2022-11-04T12:40:35.183Z,30
2022-11-04T12:43:24.690Z,30
2022-11-04T12:45:52.531Z,25
2022-11-04T12:46:37.390Z,25
2022-11-04T12:47:17.913Z,25
2022-11-04T12:47:58.430Z,25
2022-11-04T12:48:38.894Z,25
2022-11-04T12:49:19.403Z,25
2022-11-04T12:49:59.923Z,25
2022-11-04T12:50:40.376Z,25
2022-11-04T12:51:20.868Z,25
2022-11-04T12:52:01.475Z,25
2022-11-04T12:52:41.978Z,25
2022-11-04T12:53:22.474Z,25
2022-11-04T13:00:08.206Z,25
2022-11-04T13:00:48.681Z,25
2022-11-04T13:01:30.052Z,20
2022-11-04T13:02:10.657Z,20
2022-11-04T13:02:51.006Z,20
2022-11-04T13:03:32.754Z,20
2022-11-04T13:08:17.980Z,25
2022-11-04T13:08:58.551Z,25
2022-11-04T13:09:38.995Z,25
2022-11-04T13:10:19.502Z,25
2022-11-04T13:10:59.996Z,25
2022-11-04T13:11:40.453Z,25
2022-11-04T13:12:20.918Z,20
2022-11-04T13:13:01.387Z,20
2022-11-04T13:13:41.868Z,20
2022-11-04T13:14:22.343Z,20
2022-11-04T13:15:02.856Z,20
2022-11-04T13:22:28.128Z,20
2022-11-04T13:23:08.764Z,20
2022-11-04T13:23:49.103Z,20
2022-11-04T13:24:29.570Z,20
2022-11-04T13:25:10.092Z,20
2022-11-04T13:25:50.558Z,20
2022-11-04T13:26:31.076Z,20
2022-11-04T13:27:11.591Z,20
2022-11-04T13:27:52.164Z,20
2022-11-04T13:28:32.574Z,20
2022-11-04T13:35:58.202Z,10
2022-11-04T13:36:38.671Z,10
2022-11-04T13:37:19.147Z,5
2022-11-04T13:37:59.589Z,5
2022-11-04T13:38:40.065Z,5
2022-11-04T13:39:20.753Z,5
2022-11-04T13:40:01.161Z,10
2022-11-04T13:44:28.282Z,10
2022-11-04T13:45:08.607Z,10
2022-11-04T13:45:49.364Z,10
2022-11-04T13:49:52.882Z,15
2022-11-04T13:50:33.401Z,15
2022-11-04T13:51:13.936Z,15
2022-11-04T13:51:54.468Z,15
2022-11-04T13:52:35.050Z,15
2022-11-04T13:53:15.699Z,15
2022-11-04T13:53:56.130Z,15
2022-11-04T13:54:36.639Z,15
2022-11-04T13:55:17.159Z,15
2022-11-04T13:56:05.163Z,15
2022-11-04T14:01:23.051Z,10
2022-11-04T14:02:03.678Z,10
2022-11-04T14:02:44.110Z,10
2022-11-04T14:03:24.628Z,10
2022-11-04T14:04:05.116Z,10
2022-11-04T14:06:45.724Z,5
2022-11-04T14:07:27.044Z,5
2022-11-04T14:08:07.934Z,5
2022-11-04T14:08:48.876Z,5
2022-11-04T14:09:29.211Z,5
2022-11-04T14:10:09.733Z,5
2022-11-04T14:10:51.244Z,5
2022-11-04T14:11:36.291Z,5
2022-11-04T14:12:12.339Z,5
2022-11-04T14:18:58.551Z,5
2022-11-04T14:19:39.108Z,5
2022-11-04T14:20:19.627Z,5
2022-11-04T14:21:00.096Z,5
2022-11-04T14:21:40.734Z,5
2022-11-04T14:22:21.258Z,5
2022-11-04T14:23:01.865Z,5
2022-11-04T14:26:32.932Z,5
2022-11-04T14:27:13.457Z,5
2022-11-04T14:27:54.005Z,5
2022-11-04T14:28:34.637Z,5
2022-11-04T14:31:17.789Z,5
2022-11-04T14:31:57.276Z,5
2022-11-04T14:32:38.003Z,5
2022-11-04T14:33:18.582Z,5
2022-11-04T14:33:58.980Z,5
2022-11-04T14:34:39.528Z,5
2022-11-04T14:35:19.980Z,5
2022-11-04T14:36:00.571Z,5
2022-11-04T14:36:41.139Z,5
2022-11-04T14:44:06.908Z,0
2022-11-04T14:44:50.004Z,0
2022-11-04T14:45:27.974Z,0
2022-11-04T14:46:08.541Z,0
2022-11-04T14:46:49.007Z,0
2022-11-04T14:47:29.577Z,0
2022-11-04T14:48:14.740Z,0
2022-11-04T14:48:50.531Z,0
2022-11-04T14:49:31.044Z,0
2022-11-04T14:56:22.064Z,0
2022-11-04T14:56:56.845Z,0
2022-11-04T14:57:37.414Z,0
2022-11-04T14:58:17.950Z,0
2022-11-04T14:58:58.540Z,0
2022-11-04T14:59:38.979Z,0
2022-11-04T15:00:19.508Z,0
2022-11-04T15:01:40.715Z,0
2022-11-04T15:02:21.118Z,0
2022-11-04T15:09:06.638Z,0
2022-11-04T15:09:47.151Z,0
2022-11-04T15:10:27.659Z,0
2022-11-04T15:11:11.299Z,0
2022-11-04T15:11:48.605Z,0
2022-11-04T15:12:29.132Z,0
2022-11-04T15:13:09.910Z,0
2022-11-04T15:13:50.307Z,0
2022-11-04T15:14:31.026Z,0
2022-11-04T15:21:16.773Z,0
2022-11-04T15:21:57.276Z,0
2022-11-04T15:22:37.782Z,0
2022-11-04T15:23:18.458Z,0
2022-11-04T15:23:58.908Z,0
2022-11-04T15:24:39.379Z,0
2022-11-04T15:25:20.068Z,0
2022-11-04T15:26:00.547Z,0
2022-11-04T15:26:41.106Z,0
2022-11-04T15:33:26.577Z,0
2022-11-04T15:34:10.354Z,0
2022-11-04T15:34:47.810Z,0
2022-11-04T15:35:28.459Z,0
2022-11-04T15:36:08.985Z,0
2022-11-04T15:36:49.633Z,0
2022-11-04T15:37:30.243Z,0
2022-11-04T15:38:10.844Z,0
2022-11-04T15:38:51.245Z,0
2022-11-04T15:44:56.926Z,0
2022-11-04T15:45:37.616Z,0
2022-11-04T15:46:18.355Z,0
2022-11-04T15:46:58.914Z,0
2022-11-04T15:47:39.445Z,0
2022-11-04T15:48:20.129Z,0
2022-11-04T15:49:00.676Z,0
2022-11-04T15:49:41.167Z,0
2022-11-04T15:55:46.418Z,0
2022-11-04T15:56:27.058Z,0
2022-11-04T15:57:07.564Z,0
2022-11-04T15:57:48.462Z,0
2022-11-04T15:59:09.885Z,0
2022-11-04T15:59:50.348Z,0
2022-11-04T16:00:30.974Z,0
2022-11-04T16:01:11.527Z,0
2022-11-04T16:07:16.585Z,0
2022-11-04T16:07:57.285Z,0
2022-11-04T16:08:37.645Z,0
2022-11-04T16:09:18.151Z,0
2022-11-04T16:09:58.739Z,0
2022-11-04T16:10:39.255Z,0
2022-11-04T16:11:19.929Z,0
2022-11-04T16:12:00.521Z,0
2022-11-04T16:12:40.988Z,0
2022-11-04T16:13:21.444Z,0
2022-11-04T16:20:46.965Z,0
2022-11-04T16:21:27.467Z,0
2022-11-04T16:22:07.942Z,0
2022-11-04T16:22:48.439Z,0
2022-11-04T16:23:29.031Z,0
2022-11-04T16:24:09.515Z,0
2022-11-04T16:24:49.953Z,0
2022-11-04T16:25:30.430Z,0
2022-11-04T16:26:11.001Z,0
2022-11-04T16:26:51.400Z,0
2022-11-04T16:32:22.083Z,0
2022-11-04T16:33:02.600Z,0
2022-11-04T16:33:43.023Z,0
2022-11-04T16:38:26.582Z,0
2022-11-04T16:39:07.083Z,0
2022-11-04T16:39:47.595Z,0
2022-11-04T16:40:28.071Z,0
2022-11-04T16:41:08.581Z,0
2022-11-04T16:41:49.076Z,0
2022-11-04T16:42:29.554Z,0
2022-11-04T16:43:10.411Z,0
2022-11-04T16:43:50.555Z,0
2022-11-04T16:44:31.024Z,0
2022-11-04T16:45:11.484Z,0
2022-11-04T16:51:16.540Z,0
2022-11-04T16:51:56.944Z,0
2022-11-04T16:52:41.620Z,0
2022-11-04T16:53:17.864Z,0
2022-11-04T16:53:58.372Z,0
2022-11-04T16:54:38.856Z,0
2022-11-04T16:55:19.333Z,0
2022-11-04T16:55:59.848Z,0
2022-11-04T16:56:40.311Z,0
2022-11-04T16:57:20.731Z,0
2022-11-04T16:58:01.220Z,0
2022-11-04T17:05:26.639Z,0
2022-11-04T17:06:07.091Z,0
2022-11-04T17:06:47.552Z,0
2022-11-04T17:07:47.125Z,0
2022-11-04T17:08:08.485Z,0
2022-11-04T17:11:27.744Z,0
2022-11-04T17:12:08.185Z,0
2022-11-04T17:15:47.572Z,0
2022-11-04T17:16:27.824Z,0
2022-11-04T17:17:08.363Z,0
2022-11-04T17:22:32.201Z,0
2022-11-04T17:23:13.276Z,0
2022-11-04T17:23:53.805Z,0
2022-11-04T17:24:34.320Z,0
2022-11-04T17:25:14.797Z,0
2022-11-04T17:25:55.262Z,0
2022-11-04T17:26:35.751Z,0
2022-11-04T17:27:16.243Z,0
2022-11-04T17:27:56.689Z,0
2022-11-04T17:35:22.032Z,0
2022-11-04T17:36:07.397Z,0
2022-11-04T17:36:42.978Z,0
2022-11-04T17:38:03.923Z,0
2022-11-04T17:38:44.471Z,0
2022-11-04T17:39:25.018Z,0
2022-11-04T17:40:05.430Z,0
2022-11-04T17:40:45.920Z,0
2022-11-04T17:41:26.375Z,0
2022-11-04T17:42:06.919Z,0
2022-11-04T17:49:32.323Z,0
2022-11-04T17:50:12.788Z,0
2022-11-04T17:50:53.266Z,0
2022-11-04T17:51:33.792Z,0
2022-11-04T17:52:14.279Z,0
2022-11-04T17:52:54.727Z,0
2022-11-04T18:34:30.042Z,0
2022-11-04T18:35:10.140Z,0
2022-11-04T18:35:50.629Z,0
2022-11-04T18:43:09.004Z,0
2022-11-04T18:43:48.055Z,0
2022-11-04T18:44:28.527Z,0
2022-11-04T18:49:11.885Z,0
2022-11-04T18:49:52.368Z,0
2022-11-04T18:50:32.844Z,0
2022-11-04T18:51:13.352Z,0
2022-11-04T18:51:53.820Z,0
2022-11-04T18:52:34.252Z,0
2022-11-04T18:53:14.765Z,0
2022-11-04T18:53:55.238Z,0
2022-11-04T18:54:35.724Z,0
2022-11-04T18:55:16.172Z,0
2022-11-04T18:55:56.638Z,0
2022-11-04T19:02:02.108Z,0
2022-11-04T19:02:42.464Z,0
2022-11-04T19:03:22.949Z,0
2022-11-04T19:04:03.453Z,0
2022-11-04T19:04:43.917Z,0
2022-11-04T19:05:24.469Z,0
2022-11-04T19:06:04.959Z,0
2022-11-04T19:06:45.393Z,0
2022-11-04T19:07:26.507Z,0
2022-11-04T19:14:51.754Z,0
2022-11-04T19:15:32.256Z,0
2022-11-04T19:16:12.716Z,0
2022-11-04T19:16:53.180Z,0
2022-11-04T19:17:33.650Z,0
2022-11-04T19:18:14.176Z,0
2022-11-04T19:18:54.616Z,0
2022-11-04T19:19:35.165Z,0
2022-11-04T19:20:15.623Z,0
2022-11-04T19:20:56.095Z,0
2022-11-04T19:21:36.539Z,0
2022-11-04T19:29:01.838Z,0
2022-11-04T19:29:42.299Z,0
2022-11-04T19:30:22.761Z,0
2022-11-04T19:31:03.241Z,0
2022-11-04T19:31:43.716Z,0
2022-11-04T19:32:24.207Z,0
2022-11-04T19:33:04.668Z,0
2022-11-04T19:33:45.128Z,0
2022-11-04T19:37:24.772Z,0
2022-11-04T19:38:04.974Z,0
2022-11-04T19:38:45.501Z,0
2022-11-04T19:44:09.311Z,0
2022-11-04T19:44:49.771Z,0
2022-11-04T19:45:30.273Z,0
2022-11-04T19:46:10.759Z,0
2022-11-04T19:46:51.230Z,0
2022-11-04T19:47:31.735Z,0
2022-11-04T19:48:12.577Z,0
2022-11-04T19:48:52.683Z,0
2022-11-04T19:49:33.156Z,0
2022-11-04T19:50:13.699Z,0
2022-11-04T19:57:38.974Z,0
2022-11-04T19:58:19.456Z,0
2022-11-04T19:59:04.738Z,0
2022-11-04T19:59:40.455Z,0
2022-11-04T20:00:20.966Z,0
2022-11-04T20:01:01.461Z,0
2022-11-04T20:01:42.132Z,0
2022-11-04T20:02:22.666Z,0
2022-11-04T20:03:03.039Z,0
2022-11-04T20:03:43.648Z,0
2022-11-04T20:07:18.311Z,0
2022-11-04T20:08:03.261Z,0
2022-11-04T20:08:39.191Z,0
2022-11-04T20:10:40.614Z,0
2022-11-04T20:11:21.097Z,0
2022-11-04T20:12:01.568Z,0
2022-11-04T20:12:42.052Z,0
2022-11-04T20:13:22.530Z,0
2022-11-04T20:14:07.729Z,0
2022-11-04T20:14:43.525Z,0
2022-11-04T20:15:23.931Z,0
2022-11-04T20:16:04.430Z,0
2022-11-04T20:16:44.908Z,0
2022-11-04T20:24:50.653Z,0
2022-11-04T20:25:31.200Z,0
2022-11-04T20:26:15.083Z,0
2022-11-04T20:26:52.103Z,0
2022-11-04T20:27:32.597Z,0
2022-11-04T20:28:13.340Z,0
2022-11-04T20:28:53.570Z,0
2022-11-04T20:29:34.078Z,0
2022-11-04T20:30:14.533Z,0
2022-11-04T20:30:54.953Z,0
2022-11-04T20:38:20.271Z,0
2022-11-04T20:39:00.719Z,0
2022-11-04T20:39:41.247Z,0
2022-11-04T20:40:21.843Z,0
2022-11-04T20:41:02.166Z,0
2022-11-04T20:41:42.632Z,0
2022-11-04T20:42:23.107Z,0
2022-11-04T20:43:03.626Z,0
2022-11-04T20:43:44.146Z,0
2022-11-04T20:44:24.543Z,0
2022-11-04T20:52:30.414Z,0
2022-11-04T20:53:10.826Z,0
2022-11-04T20:53:51.315Z,0
2022-11-04T20:54:31.816Z,0
2022-11-04T20:55:12.302Z,0
2022-11-04T20:55:52.736Z,0
2022-11-04T20:56:33.225Z,0
2022-11-04T20:57:13.732Z,0
2022-11-04T20:57:54.195Z,0
2022-11-04T20:58:34.664Z,0
2022-11-04T20:59:15.128Z,0
2022-11-04T21:06:40.490Z,0
2022-11-04T21:07:21.006Z,0
2022-11-04T21:08:01.507Z,0
2022-11-04T21:08:41.928Z,0
2022-11-04T21:09:22.436Z,0
2022-11-04T21:10:03.051Z,0
2022-11-04T21:10:43.385Z,0
2022-11-04T21:11:27.524Z,0
2022-11-04T21:12:04.346Z,0
2022-11-04T21:12:44.862Z,0
2022-11-04T21:20:10.212Z,0
2022-11-04T21:20:50.644Z,0
2022-11-04T21:21:31.125Z,0
2022-11-04T21:22:11.662Z,0
2022-11-04T21:22:52.124Z,0
2022-11-04T21:23:32.596Z,0
2022-11-04T21:24:13.035Z,0
2022-11-04T21:24:53.468Z,0
2022-11-04T21:26:14.397Z,0
2022-11-04T21:26:54.929Z,0
2022-11-04T21:35:00.618Z,0
2022-11-04T21:35:41.045Z,0
2022-11-04T21:36:21.588Z,0
2022-11-04T21:37:02.050Z,0
2022-11-04T21:37:42.491Z,0
2022-11-04T21:38:22.958Z,0
2022-11-04T21:39:03.471Z,0
2022-11-04T21:39:43.929Z,0
2022-11-04T21:40:24.480Z,0
2022-11-04T21:41:04.963Z,0
2022-11-04T21:48:30.279Z,0
2022-11-04T21:49:10.753Z,0
2022-11-04T21:49:51.261Z,0
2022-11-04T21:50:31.712Z,0
2022-11-04T21:51:12.224Z,0
2022-11-04T21:51:52.706Z,0
2022-11-04T21:52:33.125Z,0
2022-11-04T21:53:13.527Z,0
2022-11-04T21:53:54.005Z,0
2022-11-04T21:54:34.508Z,0
2022-11-04T21:55:15.011Z,0
2022-11-04T22:02:40.439Z,0
2022-11-04T22:03:20.813Z,0
2022-11-04T22:04:01.287Z,0
2022-11-04T22:04:41.760Z,0
2022-11-04T22:05:22.221Z,0
2022-11-04T22:06:02.712Z,0
2022-11-04T22:06:43.164Z,0
2022-11-04T22:07:23.635Z,0
2022-11-04T22:08:04.131Z,0
2022-11-04T22:08:44.606Z,0
2022-11-04T22:09:25.038Z,0
2022-11-04T22:16:50.285Z,0
2022-11-04T22:17:30.803Z,0
2022-11-04T22:18:11.358Z,0
2022-11-04T22:18:51.898Z,0
2022-11-04T22:19:32.373Z,0
2022-11-04T22:20:12.841Z,0
2022-11-04T22:24:22.606Z,0
2022-11-04T22:25:11.421Z,0
2022-11-04T22:26:00.076Z,0
2022-11-04T22:26:51.487Z,0
2022-11-04T22:27:40.664Z,0
2022-11-04T22:28:32.933Z,0
2022-11-04T22:29:21.614Z,0
2022-11-04T22:33:03.884Z,0